Time;durP1;ratioP1;P1;durP2;ratioP2;P2;SDS_P1;SDS_P2;PMS_P1;PMS_P2;Temp;Humidity;BMP_temperature;BMP_pressure;BME280_temperature;BME280_humidity;BME280_pressure;Samples;Min_cycle;Max_cycle;Signal;HPM_P1;HPM_P2
2022/02/03 00:00:59;;;;;;;24.45;8.32;;;;;;;8.65;100.00;102122.66;5106168;28;20028;-70
2022/02/03 00:03:39;;;;;;;22.98;8.50;;;;;;;8.56;100.00;102123.13;5105216;28;20023;-70
2022/02/03 00:06:10;;;;;;;35.58;10.32;;;;;;;8.56;100.00;102117.88;5097300;28;20031;-70
2022/02/03 00:08:55;;;;;;;29.25;9.95;;;;;;;8.54;100.00;102115.19;5101039;28;20066;-70
2022/02/03 00:11:41;;;;;;;22.95;10.50;;;;;;;8.40;100.00;102130.25;5093369;28;20436;-68
2022/02/03 00:22:00;;;;;;;32.67;11.55;;;;;;;8.30;100.00;102125.41;5079222;28;20566;-69
2022/02/03 00:23:13;;;;;;;;;;;;;;;8.29;100.00;102123.63;5100444;28;20082;-70
2022/02/03 00:25:33;;;;;;;31.58;12.05;;;;;;;8.21;100.00;102131.13;5093532;28;19969;-70
2022/02/03 00:28:13;;;;;;;31.48;11.93;;;;;;;8.17;100.00;102128.31;5096617;28;20107;-71
2022/02/03 00:35:55;;;;;;;35.05;13.13;;;;;;;8.14;100.00;102129.06;5103208;28;20364;-68
2022/02/03 00:49:16;;;;;;;;;;;;;;;8.12;100.00;102104.47;5090978;28;20039;-69
2022/02/03 00:51:51;;;;;;;34.65;11.95;;;;;;;8.15;100.00;102098.47;5081390;28;19939;-69
2022/02/03 00:54:20;;;;;;;31.38;12.55;;;;;;;8.13;100.00;102094.91;5073914;28;20119;-69
2022/02/03 00:57:07;;;;;;;33.33;12.60;;;;;;;8.14;100.00;102105.47;5072248;28;20487;-69
2022/02/03 01:00:12;;;;;;;32.60;12.65;;;;;;;8.10;100.00;102101.78;5072124;28;20047;-70
2022/02/03 01:02:46;;;;;;;34.28;13.48;;;;;;;8.10;100.00;102098.28;5014650;28;20055;-69
2022/02/03 01:05:14;;;;;;;33.90;13.25;;;;;;;8.10;100.00;102091.31;5078748;28;20040;-69
2022/02/03 01:07:44;;;;;;;31.25;13.13;;;;;;;8.10;100.00;102078.19;5061959;28;20395;-69
2022/02/03 01:10:15;;;;;;;24.48;12.30;;;;;;;8.17;100.00;102100.34;5058057;28;20028;-69
2022/02/03 01:13:11;;;;;;;37.53;13.75;;;;;;;8.17;100.00;102108.22;5074756;28;20028;-70
2022/02/03 01:15:44;;;;;;;34.33;13.45;;;;;;;8.16;100.00;102088.06;5079196;28;20038;-69
2022/02/03 01:53:39;;;;;;;32.53;16.80;;;;;;;8.13;100.00;102037.22;5099447;28;20105;-69
2022/02/03 01:56:10;;;;;;;35.10;14.55;;;;;;;8.12;100.00;102035.44;5078639;28;20513;-69
2022/02/03 01:58:53;;;;;;;37.63;14.60;;;;;;;8.09;100.00;102046.66;5078965;28;20509;-70
2022/02/03 02:01:26;;;;;;;30.65;14.35;;;;;;;8.13;100.00;102039.84;5098519;28;20034;-69
2022/02/03 02:04:09;;;;;;;33.65;13.75;;;;;;;8.13;100.00;102040.75;5079128;28;20036;-70
2022/02/03 02:07:04;;;;;;;34.38;13.48;;;;;;;8.10;100.00;102041.50;5095641;28;20039;-69
2022/02/03 02:09:46;;;;;;;;;;;;;;;8.10;100.00;102044.13;5032557;28;20049;-70
2022/02/03 02:12:40;;;;;;;36.03;12.85;;;;;;;8.04;100.00;102043.81;5099863;28;19935;-70
2022/02/03 02:18:18;;;;;;;32.05;12.48;;;;;;;8.07;100.00;102043.97;5092668;28;20069;-70
2022/02/03 02:37:52;;;;;;;22.88;7.68;;;;;;;8.17;100.00;101987.63;5103883;28;20046;-70
2022/02/03 02:43:08;;;;;;;26.17;8.38;;;;;;;8.10;100.00;101970.72;5103816;28;20120;-69
2022/02/03 02:46:10;;;;;;;26.42;6.60;;;;;;;8.13;100.00;101974.31;5101498;28;20460;-69
2022/02/03 02:48:49;;;;;;;23.40;7.55;;;;;;;8.12;100.00;101969.88;5097389;28;20040;-70
2022/02/03 02:51:24;;;;;;;26.95;6.35;;;;;;;8.08;100.00;101969.75;5106019;28;20043;-68
2022/02/03 03:02:22;;;;;;;21.70;6.00;;;;;;;8.09;100.00;101939.19;5099131;28;20051;-69
2022/02/03 03:35:57;;;;;;;20.55;6.60;;;;;;;8.07;100.00;101870.97;5096659;28;20114;-69
2022/02/03 03:38:34;;;;;;;18.45;5.43;;;;;;;8.04;100.00;101875.16;5099927;28;20036;-70
2022/02/03 03:41:01;;;;;;;17.05;5.38;;;;;;;8.06;100.00;101873.53;5095206;28;20026;-70
2022/02/03 03:43:39;;;;;;;22.08;5.53;;;;;;;8.05;100.00;101870.00;5103955;28;20055;-70
2022/02/03 03:46:09;;;;;;;14.95;5.25;;;;;;;8.08;100.00;101867.53;5094105;28;20154;-70
2022/02/03 03:48:41;;;;;;;11.57;4.25;;;;;;;8.00;100.00;101868.00;5095567;28;20106;-69
2022/02/03 03:51:10;;;;;;;18.90;4.90;;;;;;;8.01;100.00;101870.69;5083378;28;20452;-69
2022/02/03 03:53:50;;;;;;;15.38;5.03;;;;;;;8.07;100.00;101872.69;5081163;28;20019;-70
2022/02/03 03:56:28;;;;;;;17.02;4.40;;;;;;;8.08;100.00;101867.53;5095945;28;20054;-71
2022/02/03 03:59:38;;;;;;;16.85;4.57;;;;;;;8.11;100.00;101871.97;5100285;28;20445;-70
2022/02/03 04:31:18;;;;;;;13.45;6.10;;;;;;;8.08;100.00;101841.31;5101328;28;20090;-70
2022/02/03 05:00:42;;;;;;;13.95;4.57;;;;;;;7.97;100.00;101829.44;5107245;28;20384;-70
2022/02/03 05:09:11;;;;;;;16.00;4.95;;;;;;;8.00;100.00;101800.75;5093488;28;20101;-71
2022/02/03 05:12:23;;;;;;;12.73;3.75;;;;;;;8.01;100.00;101802.53;5098625;28;20073;-70
2022/02/03 05:18:38;;;;;;;15.10;4.88;;;;;;;7.90;100.00;101788.09;5092854;28;20518;-69
2022/02/03 05:21:58;;;;;;;8.20;3.60;;;;;;;7.93;100.00;101788.22;5098321;28;20073;-70
2022/02/03 05:35:29;;;;;;;11.05;3.88;;;;;;;7.88;100.00;101759.22;5092036;28;20085;-70
2022/02/03 05:43:53;;;;;;;18.17;4.30;;;;;;;7.92;100.00;101750.66;5106485;28;20411;-71
2022/02/03 05:46:47;;;;;;;15.68;4.18;;;;;;;7.87;100.00;101759.16;5104317;28;20084;-69
2022/02/03 05:50:04;;;;;;;12.30;3.58;;;;;;;7.87;100.00;101746.03;5098774;28;20170;-69
2022/02/03 06:14:07;;;;;;;;;;;;;;;7.76;100.00;101712.41;5051335;28;20057;-70
2022/02/03 06:21:40;;;;;;;7.15;3.40;;;;;;;7.72;100.00;101715.72;5109160;28;20067;-70
2022/02/03 06:24:19;;;;;;;15.48;3.83;;;;;;;7.72;100.00;101723.59;5096997;28;20028;-70
2022/02/03 06:29:33;;;;;;;;;;;;;;;7.71;100.00;101703.47;5105009;28;20034;-70
2022/02/03 06:31:58;;;;;;;11.07;4.45;;;;;;;7.71;100.00;101698.22;5108283;28;19915;-71
2022/02/03 06:34:24;;;;;;;5.78;3.58;;;;;;;7.78;100.00;101695.88;5097949;28;20063;-70
2022/02/03 06:36:53;;;;;;;19.40;4.80;;;;;;;7.78;100.00;101674.91;5105398;27;20027;-70
2022/02/03 06:39:23;;;;;;;10.18;3.97;;;;;;;7.80;100.00;101670.63;5082568;28;20024;-70
2022/02/03 06:41:53;;;;;;;9.63;3.55;;;;;;;7.72;100.00;101665.97;5101573;28;20530;-71
2022/02/03 06:44:20;;;;;;;14.57;4.00;;;;;;;7.72;100.00;101658.09;5100939;28;20415;-70
2022/02/03 06:46:49;;;;;;;17.75;5.43;;;;;;;7.67;100.00;101670.09;5098360;28;20019;-70
2022/02/03 06:52:11;;;;;;;10.60;4.47;;;;;;;7.69;100.00;101664.94;5062401;28;20028;-69
2022/02/03 06:54:54;;;;;;;10.77;4.82;;;;;;;7.63;100.00;101673.44;5107039;28;20094;-70
2022/02/03 06:57:48;;;;;;;8.55;4.07;;;;;;;7.65;100.00;101681.34;5084445;28;20115;-70
2022/02/03 07:00:14;;;;;;;11.25;4.20;;;;;;;7.63;100.00;101683.91;5101510;28;20032;-71
2022/02/03 07:02:43;;;;;;;8.63;3.97;;;;;;;7.65;100.00;101663.00;5086553;28;20032;-69
2022/02/03 07:05:08;;;;;;;13.00;4.63;;;;;;;7.64;100.00;101669.06;5104393;28;20510;-70
2022/02/03 07:07:38;;;;;;;11.85;4.38;;;;;;;7.64;100.00;101675.22;5100003;28;20059;-71
2022/02/03 07:10:05;;;;;;;13.57;4.78;;;;;;;7.65;100.00;101670.88;5095946;28;20019;-70
2022/02/03 07:12:30;;;;;;;14.90;4.78;;;;;;;7.64;100.00;101674.31;5080907;28;20069;-70
2022/02/03 07:14:56;;;;;;;14.20;5.10;;;;;;;7.65;100.00;101671.78;5104157;28;20560;-70
2022/02/03 07:17:21;;;;;;;14.10;5.68;;;;;;;7.63;100.00;101670.81;5098928;28;20127;-69
2022/02/03 07:19:49;;;;;;;14.73;5.25;;;;;;;7.59;100.00;101671.50;5098157;28;20034;-68
2022/02/03 07:22:15;;;;;;;14.35;6.38;;;;;;;7.67;100.00;101662.25;5101260;28;20149;-69
2022/02/03 07:24:41;;;;;;;14.48;6.07;;;;;;;7.66;100.00;101657.84;5080123;28;20023;-68
2022/02/03 07:27:06;;;;;;;13.68;6.80;;;;;;;7.63;100.00;101667.31;5102553;28;20028;-69
2022/02/03 07:29:32;;;;;;;12.63;6.00;;;;;;;7.65;100.00;101645.59;5100649;28;20052;-69
2022/02/03 07:31:57;;;;;;;17.10;6.82;;;;;;;7.63;100.00;101643.72;5101475;27;20018;-70
2022/02/03 07:34:22;;;;;;;14.32;6.68;;;;;;;7.60;100.00;101644.50;5101654;27;20027;-69
2022/02/03 07:36:48;;;;;;;13.02;7.72;;;;;;;7.56;100.00;101646.09;5100333;28;20379;-70
2022/02/03 07:39:14;;;;;;;16.70;7.78;;;;;;;7.58;100.00;101648.75;5105298;28;20024;-71
2022/02/03 07:41:41;;;;;;;14.45;8.02;;;;;;;7.60;100.00;101649.75;5088259;28;20027;-70
2022/02/03 07:44:08;;;;;;;17.80;8.25;;;;;;;7.65;100.00;101660.38;5102918;27;20381;-71
2022/02/03 07:46:34;;;;;;;15.18;8.20;;;;;;;7.55;100.00;101669.59;5111538;27;20059;-69
2022/02/03 07:49:00;;;;;;;13.55;8.18;;;;;;;7.57;100.00;101655.75;5100001;28;20034;-70
2022/02/03 07:51:25;;;;;;;16.55;8.55;;;;;;;7.52;100.00;101659.00;5076758;28;20032;-71
2022/02/03 07:53:52;;;;;;;16.45;8.70;;;;;;;7.50;100.00;101653.69;5107413;28;20023;-80
2022/02/03 07:56:17;;;;;;;25.25;9.63;;;;;;;7.51;100.00;101655.47;5103354;27;20063;-71
2022/02/03 07:58:42;;;;;;;18.70;9.45;;;;;;;7.51;100.00;101660.69;5111630;27;20447;-69
2022/02/03 08:01:08;;;;;;;24.75;10.88;;;;;;;7.47;100.00;101650.94;5112890;27;20028;-71
2022/02/03 08:03:33;;;;;;;17.20;9.18;;;;;;;7.38;100.00;101651.44;5101775;27;20099;-70
2022/02/03 08:06:04;;;;;;;16.98;9.02;;;;;;;7.40;100.00;101654.13;5106466;27;20447;-71
2022/02/03 08:08:37;;;;;;;12.93;8.68;;;;;;;7.39;100.00;101653.25;5103394;28;20081;-71
2022/02/03 08:11:07;;;;;;;;;;;;;;;7.43;100.00;101649.94;5097502;27;20048;-71
2022/02/03 08:13:37;;;;;;;18.88;7.45;;;;;;;7.39;100.00;101674.19;5096072;28;19968;-70
2022/02/03 08:16:10;;;;;;;13.32;8.13;;;;;;;7.35;100.00;101656.56;5087649;27;20023;-70
2022/02/03 08:18:38;;;;;;;13.95;8.45;;;;;;;7.24;100.00;101657.81;5087349;28;20398;-71
2022/02/03 08:21:06;;;;;;;15.02;8.27;;;;;;;7.09;100.00;101652.78;5079932;28;20027;-71
2022/02/03 08:26:12;;;;;;;15.77;10.68;;;;;;;7.03;100.00;101645.56;5079023;28;20028;-68
2022/02/03 08:31:06;;;;;;;20.15;11.20;;;;;;;6.86;100.00;101628.25;5097159;27;20602;-70
2022/02/03 08:33:32;;;;;;;14.90;10.80;;;;;;;6.77;100.00;101622.59;5103682;27;20035;-70
2022/02/03 08:36:02;;;;;;;16.85;11.30;;;;;;;6.78;100.00;101642.69;5101141;27;20039;-69
2022/02/03 08:41:07;;;;;;;19.67;12.02;;;;;;;6.73;100.00;101619.84;5102822;27;20035;-71
2022/02/03 08:43:35;;;;;;;18.42;12.18;;;;;;;6.75;100.00;101620.81;5103552;28;20032;-69
2022/02/03 08:46:07;;;;;;;19.75;13.25;;;;;;;6.72;100.00;101625.00;5081854;27;20052;-71
2022/02/03 08:48:34;;;;;;;22.20;13.23;;;;;;;6.73;100.00;101622.47;5092408;28;20483;-70
2022/02/03 08:51:02;;;;;;;22.02;14.13;;;;;;;6.71;100.00;101617.97;5105899;27;20070;-69
2022/02/03 08:53:35;;;;;;;26.50;15.88;;;;;;;6.75;100.00;101617.28;5109121;27;20039;-70
2022/02/03 08:59:07;;;;;;;28.95;15.68;;;;;;;6.70;100.00;101619.72;5099456;27;20044;-69
2022/02/03 09:36:26;;;;;;;27.75;14.88;;;;;;;6.52;100.00;101626.72;5108157;28;20044;-71
2022/02/03 09:52:38;;;;;;;;;;;;;;;6.53;100.00;101599.75;5100282;27;20047;-69
2022/02/03 09:57:40;;;;;;;21.70;13.45;;;;;;;6.53;100.00;101602.38;5113506;27;20093;-71
2022/02/03 10:00:28;;;;;;;25.15;13.88;;;;;;;6.55;100.00;101601.63;5101336;27;20130;-72
2022/02/03 10:02:58;;;;;;;27.67;14.27;;;;;;;6.57;100.00;101601.69;5091828;28;20483;-72
2022/02/03 10:05:55;;;;;;;26.67;15.63;;;;;;;6.62;100.00;101600.19;5100495;27;20472;-71
2022/02/03 10:08:19;;;;;;;29.10;15.55;;;;;;;6.64;100.00;101597.63;5106142;27;20035;-72
2022/02/03 10:10:47;;;;;;;25.40;15.32;;;;;;;6.67;100.00;101601.25;5095249;27;21040;-72
2022/02/03 10:13:22;;;;;;;29.70;15.95;;;;;;;6.60;100.00;101601.81;5104380;27;20099;-71
2022/02/03 10:16:02;;;;;;;22.60;13.38;;;;;;;6.64;100.00;101595.00;5096179;28;20118;-71
2022/02/03 10:18:29;;;;;;;30.35;14.60;;;;;;;6.64;100.00;101593.28;5096288;27;20028;-71
2022/02/03 10:20:56;;;;;;;27.27;12.40;;;;;;;6.61;100.00;101601.00;5097229;28;20043;-71
2022/02/03 10:23:24;;;;;;;24.60;13.18;;;;;;;6.61;100.00;101595.75;5080131;28;20094;-80
2022/02/03 10:25:54;;;;;;;26.55;13.10;;;;;;;6.65;100.00;101589.84;5083926;27;20047;-71
2022/02/03 10:28:20;;;;;;;23.60;13.73;;;;;;;6.64;100.00;101580.19;5099952;27;20134;-71
2022/02/03 10:30:52;;;;;;;28.90;14.25;;;;;;;6.64;100.00;101585.44;5107183;27;20459;-72
2022/02/03 10:33:20;;;;;;;27.65;14.10;;;;;;;6.65;100.00;101571.53;5105930;27;20024;-72
2022/02/03 10:35:56;;;;;;;32.28;15.60;;;;;;;6.69;100.00;101577.81;5110539;27;20034;-72
2022/02/03 10:44:52;;;;;;;21.27;12.88;;;;;;;6.57;100.00;101558.13;5109098;27;20032;-71
2022/02/03 11:12:54;;;;;;;19.48;9.43;;;;;;;6.80;100.00;101536.44;5078957;28;20036;-70
2022/02/03 11:15:23;;;;;;;22.85;9.75;;;;;;;6.79;100.00;101530.28;5080569;28;20120;-70
2022/02/03 11:17:49;;;;;;;21.80;9.05;;;;;;;6.81;100.00;101531.25;5077826;28;20438;-71
2022/02/03 11:20:17;;;;;;;20.10;10.73;;;;;;;6.83;100.00;101533.94;5100781;28;20031;-70
2022/02/03 11:22:50;;;;;;;20.48;8.80;;;;;;;6.81;100.00;101514.66;5081174;28;20032;-70
2022/02/03 11:25:25;;;;;;;22.98;10.15;;;;;;;6.86;100.00;101519.28;5077087;28;20041;-69
2022/02/03 12:01:16;;;;;;;18.98;10.10;;;;;;;6.91;100.00;101480.22;5068010;28;20113;-71
2022/02/03 12:03:18;;;;;;;19.30;10.38;;;;;;;6.91;100.00;101481.09;5069615;28;20412;-70
2022/02/03 12:10:27;;;;;;;19.40;10.10;;;;;;;6.96;100.00;101483.91;5073213;28;20503;-70
2022/02/03 12:12:07;;;;;;;22.15;10.65;;;;;;;6.89;100.00;101487.09;5060221;28;20036;-70
2022/02/03 12:15:01;;;;;;;22.90;9.75;;;;;;;6.93;100.00;101486.38;5078432;28;20078;-70
2022/02/03 12:17:49;;;;;;;19.25;11.35;;;;;;;6.88;100.00;101480.97;5082961;28;20024;-70
2022/02/03 12:20:33;;;;;;;17.85;8.93;;;;;;;6.82;100.00;101475.47;5082691;28;20035;-70
2022/02/03 12:23:05;;;;;;;17.27;8.73;;;;;;;6.84;100.00;101470.34;5074380;28;20032;-71
2022/02/03 12:25:46;;;;;;;19.25;10.05;;;;;;;6.80;100.00;101463.19;5078862;28;20357;-71
2022/02/03 12:28:25;;;;;;;18.95;10.10;;;;;;;6.80;100.00;101468.41;5078130;28;20027;-70
2022/02/03 12:39:11;;;;;;;17.40;10.07;;;;;;;6.93;100.00;101439.28;5080309;28;20055;-71
2022/02/03 12:42:03;;;;;;;20.95;10.90;;;;;;;7.05;100.00;101437.22;5078341;28;20024;-70
2022/02/03 12:44:26;;;;;;;21.85;9.73;;;;;;;7.04;100.00;101444.97;5079531;28;20044;-70
2022/02/03 12:46:54;;;;;;;17.83;10.40;;;;;;;7.14;100.00;101448.88;5085507;28;20031;-71
2022/02/03 12:49:20;;;;;;;15.05;9.63;;;;;;;7.00;100.00;101443.97;5086310;28;20024;-71
2022/02/03 12:51:46;;;;;;;17.23;9.95;;;;;;;7.04;100.00;101444.97;5097840;27;20028;-71
2022/02/03 12:54:15;;;;;;;18.02;9.77;;;;;;;7.05;100.00;101446.75;5110573;27;20071;-71
2022/02/03 12:56:41;;;;;;;21.30;9.25;;;;;;;7.02;100.00;101437.06;5102271;28;20028;-70
2022/02/03 12:59:11;;;;;;;20.58;9.63;;;;;;;7.05;100.00;101437.22;5097884;27;20026;-71
2022/02/03 13:01:39;;;;;;;16.90;9.15;;;;;;;7.03;100.00;101438.84;5103769;27;20051;-71
2022/02/03 13:04:12;;;;;;;22.17;9.48;;;;;;;7.03;100.00;101425.78;5065569;27;20463;-70
2022/02/03 13:06:43;;;;;;;15.80;10.13;;;;;;;7.01;100.00;101424.84;5101829;27;20099;-71
2022/02/03 13:09:10;;;;;;;17.38;9.88;;;;;;;7.03;100.00;101423.16;5108049;27;20020;-71
2022/02/03 13:11:47;;;;;;;21.05;10.00;;;;;;;6.91;100.00;101418.31;5105218;27;20139;-71
2022/02/03 13:16:52;;;;;;;19.23;10.80;;;;;;;6.79;100.00;101406.47;5099795;28;20041;-71
2022/02/03 13:19:25;;;;;;;21.25;10.57;;;;;;;6.80;100.00;101414.38;5113771;28;20027;-71
2022/02/03 13:22:11;;;;;;;21.08;10.73;;;;;;;6.81;100.00;101415.25;5111154;28;20032;-71
2022/02/03 13:27:29;;;;;;;19.92;11.25;;;;;;;6.86;100.00;101403.25;5108988;28;20051;-71
2022/02/03 13:30:01;;;;;;;18.15;11.07;;;;;;;6.89;100.00;101400.75;5095490;28;20559;-71
2022/02/03 13:32:35;;;;;;;23.52;11.48;;;;;;;6.96;100.00;101400.19;5110995;28;20065;-70
2022/02/03 13:35:18;;;;;;;17.67;10.25;;;;;;;6.95;100.00;101403.63;5108604;28;20024;-71
2022/02/03 13:37:53;;;;;;;25.35;11.52;;;;;;;6.88;100.00;101389.41;5102223;28;20532;-70
2022/02/03 13:40:19;;;;;;;18.33;11.15;;;;;;;6.90;100.00;101399.94;5110140;28;20034;-71
2022/02/03 13:42:51;;;;;;;22.95;11.73;;;;;;;6.90;100.00;101389.47;5097424;28;20054;-70
2022/02/03 13:45:20;;;;;;;18.95;11.60;;;;;;;6.87;100.00;101390.25;5092921;28;20038;-71
2022/02/03 13:47:48;;;;;;;18.45;10.95;;;;;;;6.80;100.00;101382.09;5094149;28;20035;-71
2022/02/03 13:50:27;;;;;;;21.48;12.63;;;;;;;6.83;100.00;101392.69;5096449;28;20127;-71
2022/02/03 13:53:00;;;;;;;22.92;12.80;;;;;;;6.75;100.00;101382.81;5081683;28;20049;-71
2022/02/03 14:16:13;;;;;;;23.15;13.02;;;;;;;6.84;100.00;101363.09;5094521;28;20046;-71
2022/02/03 14:29:23;;;;;;;19.93;11.27;;;;;;;7.05;100.00;101356.09;5098435;27;20000;-71
2022/02/03 14:31:58;;;;;;;18.52;12.02;;;;;;;7.11;100.00;101364.97;5107857;27;20736;-71
2022/02/03 14:34:29;;;;;;;22.83;11.82;;;;;;;7.13;100.00;101355.47;5110916;27;20019;-72
2022/02/03 14:39:38;;;;;;;24.08;11.07;;;;;;;7.18;100.00;101346.09;5104947;27;21268;-71
2022/02/03 14:42:06;;;;;;;21.58;11.57;;;;;;;7.22;100.00;101340.13;5086211;27;20036;-70
2022/02/03 14:44:32;;;;;;;21.38;11.73;;;;;;;7.21;100.00;101348.81;5109004;27;20043;-70
2022/02/03 14:46:57;;;;;;;22.15;11.57;;;;;;;7.24;100.00;101338.44;5104447;27;20115;-71
2022/02/03 14:49:23;;;;;;;21.02;11.38;;;;;;;7.24;100.00;101341.06;5090012;28;20115;-71
2022/02/03 14:52:11;;;;;;;23.90;11.57;;;;;;;7.25;100.00;101341.13;5067137;28;20434;-71
2022/02/03 15:00:06;;;;;;;25.85;10.30;;;;;;;7.31;100.00;101335.25;5099155;28;20070;-71
2022/02/03 15:02:32;;;;;;;18.35;9.77;;;;;;;7.32;100.00;101331.78;5090908;28;20031;-69
2022/02/03 15:05:05;;;;;;;23.60;11.32;;;;;;;7.33;100.00;101327.47;5087257;28;20029;-70
2022/02/03 15:07:33;;;;;;;17.75;9.52;;;;;;;7.33;100.00;101325.72;5092986;28;20028;-70
2022/02/03 15:10:16;;;;;;;19.48;10.15;;;;;;;7.32;100.00;101329.16;5083640;28;20015;-70
2022/02/03 15:12:59;;;;;;;20.42;10.88;;;;;;;7.35;100.00;101326.69;5088474;28;20035;-70
2022/02/03 15:15:24;;;;;;;23.17;10.68;;;;;;;7.32;100.00;101318.69;5085271;28;20449;-70
2022/02/03 15:17:49;;;;;;;19.27;10.23;;;;;;;7.32;100.00;101317.81;5078568;28;20099;-70
2022/02/03 15:20:15;;;;;;;26.60;10.50;;;;;;;7.30;100.00;101320.38;5072493;28;20035;-70
2022/02/03 15:22:41;;;;;;;16.83;9.60;;;;;;;7.34;100.00;101321.38;5076681;28;20051;-71
2022/02/03 15:25:06;;;;;;;17.50;9.02;;;;;;;7.34;100.00;101329.22;5081570;28;20390;-71
2022/02/03 15:27:32;;;;;;;22.23;8.73;;;;;;;7.38;100.00;101320.63;5087410;28;20559;-70
2022/02/03 15:30:01;;;;;;;19.17;9.82;;;;;;;7.36;100.00;101327.56;5081942;28;20051;-71
2022/02/03 15:32:26;;;;;;;21.52;9.15;;;;;;;7.36;100.00;101312.72;5087472;28;20032;-70
2022/02/03 15:34:54;;;;;;;19.88;8.82;;;;;;;7.35;100.00;101316.22;5076181;28;20028;-71
2022/02/03 15:37:20;;;;;;;16.17;8.20;;;;;;;7.28;100.00;101313.28;5089035;28;20028;-71
2022/02/03 15:39:51;;;;;;;16.80;8.63;;;;;;;7.22;100.00;101314.84;5083979;28;20024;-70
2022/02/03 15:42:24;;;;;;;19.90;8.85;;;;;;;7.20;100.00;101326.09;5084246;28;20480;-70
2022/02/03 15:44:53;;;;;;;22.50;9.35;;;;;;;7.17;100.00;101315.50;5081268;28;20035;-71
2022/02/03 15:47:35;;;;;;;16.23;8.95;;;;;;;7.15;100.00;101317.16;5062181;28;20024;-71
2022/02/03 16:18:56;;;;;;;12.57;6.90;;;;;;;7.23;100.00;101318.34;5106734;27;20024;-70
2022/02/03 16:21:29;;;;;;;15.02;6.63;;;;;;;7.22;100.00;101314.84;5100709;27;20039;-70
2022/02/03 16:24:43;;;;;;;12.43;6.35;;;;;;;7.23;100.00;101311.41;5104472;27;20107;-70
2022/02/03 16:53:28;;;;;;;14.30;5.50;;;;;;;7.24;100.00;101299.19;5097790;28;19913;-70
2022/02/03 16:55:53;;;;;;;10.27;6.05;;;;;;;7.26;100.00;101301.03;5107918;27;20024;-71
2022/02/03 16:58:19;;;;;;;16.67;6.07;;;;;;;7.28;100.00;101294.97;5108998;27;20035;-71
2022/02/03 17:00:46;;;;;;;14.38;6.93;;;;;;;7.28;100.00;101298.47;5096434;27;20073;-71
2022/02/03 17:03:11;;;;;;;13.18;5.78;;;;;;;7.24;100.00;101296.56;5089097;28;20042;-70
2022/02/03 17:05:38;;;;;;;11.88;5.68;;;;;;;7.29;100.00;101305.50;5082743;28;20035;-71
2022/02/03 17:08:07;;;;;;;11.98;5.97;;;;;;;7.31;100.00;101303.84;5100482;28;20027;-71
2022/02/03 17:10:33;;;;;;;11.23;5.72;;;;;;;7.31;100.00;101306.47;5103638;27;20036;-70
2022/02/03 17:12:59;;;;;;;18.90;6.50;;;;;;;7.31;100.00;101297.69;5097399;28;20024;-70
2022/02/03 17:15:25;;;;;;;21.08;6.47;;;;;;;7.24;100.00;101307.03;5100815;27;20040;-72
2022/02/03 17:17:51;;;;;;;13.23;6.03;;;;;;;7.27;100.00;101301.94;5109980;28;20651;-71
2022/02/03 17:20:19;;;;;;;16.83;5.80;;;;;;;7.27;100.00;101304.56;5103665;28;20089;-71
2022/02/03 17:22:48;;;;;;;17.95;6.78;;;;;;;7.25;100.00;101293.13;5083748;28;20028;-71
2022/02/03 17:25:24;;;;;;;14.55;6.47;;;;;;;7.26;100.00;101292.31;5099808;28;20126;-71
2022/02/03 17:28:08;;;;;;;16.58;7.35;;;;;;;7.24;100.00;101299.19;5103526;28;20051;-70
2022/02/03 17:30:40;;;;;;;14.63;7.90;;;;;;;7.23;100.00;101294.78;5098689;28;20471;-70
2022/02/03 18:08:48;;;;;;;17.30;8.05;;;;;;;7.19;100.00;101325.19;5096641;28;20058;-71
2022/02/03 18:34:52;;;;;;;15.07;6.60;;;;;;;7.16;100.00;101316.34;5106068;28;20050;-70
2022/02/03 18:50:30;;;;;;;20.23;8.52;;;;;;;7.09;100.00;101308.28;5104468;27;19915;-72
2022/02/03 18:55:41;;;;;;;12.50;8.25;;;;;;;7.13;100.00;101313.59;5108338;27;20113;-72
2022/02/03 18:58:28;;;;;;;18.45;7.75;;;;;;;7.17;100.00;101312.88;5087904;27;20102;-73
2022/02/03 20:05:43;;;;;;;21.38;7.88;;;;;;;6.68;100.00;101298.78;5095664;28;20035;-72
2022/02/03 20:08:16;;;;;;;17.42;7.40;;;;;;;6.69;100.00;101295.34;5105207;28;20028;-72
2022/02/03 20:10:45;;;;;;;18.38;7.97;;;;;;;6.71;100.00;101289.31;5104289;28;20061;-72
2022/02/03 20:13:11;;;;;;;15.70;7.45;;;;;;;6.71;100.00;101293.69;5105929;28;20028;-73
2022/02/03 20:15:38;;;;;;;13.85;6.70;;;;;;;6.72;100.00;101287.63;5105097;27;20032;-72
2022/02/03 20:18:05;;;;;;;18.20;6.90;;;;;;;6.75;100.00;101286.03;5079833;28;20031;-70
2022/02/03 20:20:32;;;;;;;13.80;6.35;;;;;;;6.77;100.00;101290.41;5109222;27;20023;-71
2022/02/03 20:22:57;;;;;;;17.98;6.45;;;;;;;6.84;100.00;101297.69;5109504;27;20023;-73
2022/02/03 20:25:23;;;;;;;12.95;6.18;;;;;;;6.85;100.00;101296.84;5087033;28;20387;-73
2022/02/03 20:27:48;;;;;;;18.80;6.38;;;;;;;6.90;100.00;101290.97;5106849;28;20034;-72
2022/02/03 20:30:13;;;;;;;13.07;5.93;;;;;;;6.92;100.00;101284.06;5099244;28;20026;-71
2022/02/03 20:32:40;;;;;;;20.38;5.68;;;;;;;6.97;100.00;101281.59;5107343;27;20364;-71
2022/02/03 20:35:05;;;;;;;16.95;6.70;;;;;;;6.98;100.00;101278.16;5102948;28;20031;-71
2022/02/03 20:37:31;;;;;;;14.55;4.95;;;;;;;6.96;100.00;101277.22;5096503;28;20479;-72
2022/02/03 20:39:56;;;;;;;13.98;5.10;;;;;;;7.01;100.00;101272.16;5095233;27;20028;-71
2022/02/03 20:42:22;;;;;;;13.00;4.30;;;;;;;7.03;100.00;101271.38;5102952;27;20028;-71
2022/02/03 20:44:49;;;;;;;10.93;4.80;;;;;;;7.04;100.00;101270.56;5104634;27;20434;-72
2022/02/03 20:47:15;;;;;;;10.93;3.95;;;;;;;7.06;100.00;101263.66;5110412;27;20031;-72
2022/02/03 20:49:41;;;;;;;13.57;4.45;;;;;;;7.08;100.00;101264.59;5097964;28;20054;-72
2022/02/03 20:52:07;;;;;;;11.95;3.97;;;;;;;7.07;100.00;101262.81;5088299;28;20486;-70
2022/02/03 20:54:33;;;;;;;17.77;4.35;;;;;;;7.09;100.00;101260.25;5107523;27;20028;-71
2022/02/03 20:56:59;;;;;;;9.07;4.13;;;;;;;7.11;100.00;101265.53;5100508;27;20491;-73
2022/02/03 20:59:29;;;;;;;14.30;4.35;;;;;;;7.11;100.00;101252.44;5104023;27;20038;-72
2022/02/03 21:01:58;;;;;;;10.50;4.28;;;;;;;7.12;100.00;101252.50;5098681;28;20111;-74
2022/02/03 21:07:14;;;;;;;13.40;5.00;;;;;;;7.13;100.00;101261.28;5077330;28;20035;-71
2022/02/03 21:09:42;;;;;;;10.75;4.70;;;;;;;7.13;100.00;101256.03;5102390;28;20111;-71
2022/02/03 21:12:09;;;;;;;12.45;5.72;;;;;;;7.15;100.00;101254.34;5111243;27;20076;-71
2022/02/03 21:14:35;;;;;;;13.40;5.00;;;;;;;7.16;100.00;101257.06;5109796;28;20028;-70
2022/02/03 21:17:00;;;;;;;14.57;5.82;;;;;;;7.17;100.00;101255.31;5089695;28;20031;-70
2022/02/03 21:19:25;;;;;;;13.60;5.60;;;;;;;7.18;100.00;101244.03;5111994;28;20041;-70
2022/02/03 21:21:51;;;;;;;18.73;6.88;;;;;;;7.21;100.00;101258.09;5105511;28;20069;-71
2022/02/03 21:24:16;;;;;;;13.68;5.32;;;;;;;7.21;100.00;101257.22;5095456;28;20024;-70
2022/02/03 21:26:42;;;;;;;13.68;5.65;;;;;;;7.21;100.00;101249.34;5081422;28;20039;-70
2022/02/03 21:29:07;;;;;;;12.35;6.13;;;;;;;7.20;100.00;101243.25;5076697;28;20024;-72
2022/02/03 21:31:33;;;;;;;10.30;5.40;;;;;;;7.23;100.00;101247.66;5103192;27;20032;-71
2022/02/03 21:33:58;;;;;;;13.80;5.45;;;;;;;7.29;100.00;101244.41;5111951;27;20031;-70
2022/02/03 21:36:32;;;;;;;14.43;5.85;;;;;;;7.30;100.00;101254.03;5100833;27;20024;-70
2022/02/03 21:38:57;;;;;;;9.57;4.78;;;;;;;7.29;100.00;101247.03;5097087;28;20038;-71
2022/02/03 21:41:23;;;;;;;10.73;5.07;;;;;;;7.25;100.00;101246.88;5111707;27;20035;-71
2022/02/03 21:43:48;;;;;;;11.40;5.53;;;;;;;7.29;100.00;101242.66;5103137;27;20066;-70
2022/02/03 21:46:14;;;;;;;13.65;4.78;;;;;;;7.28;100.00;101246.13;5101421;27;20024;-70
2022/02/03 21:48:48;;;;;;;16.27;5.47;;;;;;;7.29;100.00;101242.66;5113506;27;20031;-71
2022/02/03 21:51:15;;;;;;;8.38;4.78;;;;;;;7.33;100.00;101243.69;5087157;28;20092;-71
2022/02/03 21:53:40;;;;;;;10.25;4.18;;;;;;;7.38;100.00;101242.09;5081620;28;20476;-70